Time;durP1;ratioP1;P1;durP2;ratioP2;P2;SDS_P1;SDS_P2;PMS_P1;PMS_P2;Temp;Humidity;BMP_temperature;BMP_pressure;BME280_temperature;BME280_humidity;BME280_pressure;Samples;Min_cycle;Max_cycle;Signal;HPM_P1;HPM_P2
2021/06/16 00:01:32;;;;;;;5.18;2.88;;;;;;;12.58;57.89;90980.25;4995237;28;20033;-84
2021/06/16 00:03:59;;;;;;;5.18;3.55;;;;;;;12.60;61.62;90982.53;4962489;28;20435;-83
2021/06/16 00:06:26;;;;;;;7.50;3.20;;;;;;;12.59;61.26;90978.41;5016365;28;20103;-84
2021/06/16 00:08:54;;;;;;;4.78;2.60;;;;;;;12.66;58.70;90965.50;5016429;28;20029;-83
2021/06/16 00:11:20;;;;;;;5.40;3.30;;;;;;;12.83;54.91;90970.38;4998912;28;20053;-84
2021/06/16 00:13:48;;;;;;;4.88;2.17;;;;;;;12.82;53.40;90966.22;4982386;28;20033;-84
2021/06/16 00:16:14;;;;;;;3.72;2.40;;;;;;;12.75;54.47;90966.06;4991326;28;20155;-83
2021/06/16 00:18:41;;;;;;;3.70;2.25;;;;;;;12.95;52.91;90973.97;4996435;28;20034;-83
2021/06/16 00:21:10;;;;;;;7.35;2.92;;;;;;;12.93;53.00;90974.31;4979203;28;20054;-84
2021/06/16 00:23:42;;;;;;;5.25;2.58;;;;;;;13.13;54.79;90969.88;4982579;28;20022;-83
2021/06/16 00:26:17;;;;;;;6.78;2.80;;;;;;;13.00;54.81;90973.72;5015953;28;20072;-84
2021/06/16 00:28:48;;;;;;;4.97;2.60;;;;;;;12.97;55.26;90971.75;5016207;28;20033;-84
2021/06/16 00:31:19;;;;;;;6.20;2.88;;;;;;;12.89;56.55;90971.59;4997729;28;20037;-84
2021/06/16 00:33:48;;;;;;;12.07;4.47;;;;;;;12.95;57.82;90963.53;5015705;28;20021;-84
2021/06/16 00:36:15;;;;;;;9.63;3.42;;;;;;;12.80;58.13;90967.69;4994563;28;20029;-84
2021/06/16 00:38:41;;;;;;;6.75;3.17;;;;;;;12.68;58.84;90965.91;4978869;28;20056;-84
2021/06/16 00:41:08;;;;;;;5.53;3.03;;;;;;;12.60;60.04;90964.97;4962769;28;20529;-85
2021/06/16 00:43:35;;;;;;;5.43;2.85;;;;;;;12.77;58.53;90963.88;4966091;28;20026;-84
2021/06/16 00:46:02;;;;;;;5.80;3.30;;;;;;;12.66;58.66;90966.25;4978949;28;20034;-84
2021/06/16 00:48:29;;;;;;;5.78;2.80;;;;;;;12.69;58.17;90967.44;4962989;28;20109;-84
2021/06/16 00:50:55;;;;;;;8.52;3.42;;;;;;;12.65;59.60;90971.84;4978509;28;20026;-83
2021/06/16 00:53:22;;;;;;;7.20;3.60;;;;;;;12.68;59.40;90971.91;4962637;28;20446;-86
2021/06/16 00:55:50;;;;;;;8.07;3.63;;;;;;;12.80;58.50;90976.28;4978515;28;20029;-83
2021/06/16 00:58:17;;;;;;;6.13;3.47;;;;;;;12.88;58.35;90980.56;4962375;28;20026;-85
2021/06/16 01:00:59;;;;;;;7.60;4.03;;;;;;;12.83;58.58;90970.38;4995340;28;20045;-83
2021/06/16 01:03:35;;;;;;;6.30;3.53;;;;;;;12.86;59.50;90971.53;4947882;28;20030;-82
2021/06/16 01:06:12;;;;;;;7.43;4.05;;;;;;;12.77;60.23;90966.50;4962751;28;20145;-84
2021/06/16 01:08:50;;;;;;;8.85;3.83;;;;;;;12.73;60.34;90973.50;4962499;28;20030;-82
2021/06/16 01:11:22;;;;;;;7.45;4.10;;;;;;;12.70;60.65;90971.56;4963479;28;20074;-85
2021/06/16 01:14:00;;;;;;;11.70;4.45;;;;;;;12.60;61.55;90979.91;4976367;28;20129;-84
2021/06/16 01:16:42;;;;;;;5.22;3.80;;;;;;;12.61;61.91;90970.97;4962779;28;20022;-84
2021/06/16 01:19:27;;;;;;;6.65;4.10;;;;;;;12.54;62.88;90971.56;4995632;28;20395;-82
2021/06/16 01:22:02;;;;;;;7.60;5.00;;;;;;;12.50;63.13;90972.56;4978221;28;20026;-84
2021/06/16 01:24:30;;;;;;;6.75;4.13;;;;;;;12.44;63.68;90970.22;4965978;28;20038;-85
2021/06/16 01:26:58;;;;;;;8.13;4.55;;;;;;;12.41;63.97;90965.66;4997255;28;20066;-86
2021/06/16 01:29:29;;;;;;;10.05;4.25;;;;;;;12.43;64.40;90970.56;4981084;28;20096;-83
2021/06/16 01:31:56;;;;;;;12.35;4.47;;;;;;;12.45;63.99;90957.91;4981130;28;20111;-84
2021/06/16 01:34:22;;;;;;;6.70;4.07;;;;;;;12.55;62.66;90967.09;4977256;28;20030;-85
2021/06/16 01:36:49;;;;;;;10.00;4.38;;;;;;;12.51;62.62;90966.25;4966361;28;20030;-85
2021/06/16 01:39:20;;;;;;;10.57;4.43;;;;;;;12.58;62.65;90964.56;4963637;28;20098;-84
2021/06/16 01:41:46;;;;;;;8.82;4.60;;;;;;;12.52;63.20;90965.16;5014308;28;20104;-84
2021/06/16 01:44:14;;;;;;;7.18;4.50;;;;;;;12.38;64.57;90958.50;4996384;28;20041;-85
2021/06/16 01:46:50;;;;;;;12.43;4.25;;;;;;;12.35;64.92;90958.41;4980020;28;20034;-84
2021/06/16 01:49:26;;;;;;;9.45;4.90;;;;;;;12.36;65.44;90955.44;4981107;28;20034;-85
2021/06/16 01:52:00;;;;;;;8.38;4.70;;;;;;;12.39;65.23;90954.78;4965115;28;20030;-84
2021/06/16 01:54:34;;;;;;;8.70;5.32;;;;;;;12.36;65.23;90955.44;4980457;28;20033;-83
2021/06/16 01:57:04;;;;;;;10.15;4.90;;;;;;;12.40;64.90;90956.31;5037617;23;20028;-86
2021/06/16 01:59:34;;;;;;;9.18;4.55;;;;;;;12.47;64.60;90954.94;4991312;28;20042;-86
2021/06/16 02:02:07;;;;;;;10.30;4.65;;;;;;;12.46;64.14;90959.41;4992372;28;20026;-86
2021/06/16 02:04:33;;;;;;;12.27;5.18;;;;;;;12.35;65.52;90953.19;4992045;28;20476;-86
2021/06/16 02:07:22;;;;;;;10.27;5.15;;;;;;;12.31;66.00;90950.50;4991524;28;20030;-86
2021/06/16 02:09:55;;;;;;;7.90;5.20;;;;;;;12.42;65.41;90955.97;4991883;28;20030;-86
2021/06/16 02:12:29;;;;;;;11.20;5.10;;;;;;;12.31;66.33;90947.88;4991692;28;20083;-87
2021/06/16 02:15:04;;;;;;;11.48;5.32;;;;;;;12.30;66.52;90950.84;4959717;28;20026;-86
2021/06/16 02:17:30;;;;;;;11.98;5.53;;;;;;;12.28;66.54;90948.53;4991400;28;20023;-86
2021/06/16 02:19:58;;;;;;;8.65;5.20;;;;;;;12.27;66.97;90951.50;4991571;28;20026;-86
2021/06/16 02:22:27;;;;;;;11.38;5.28;;;;;;;12.38;66.67;90955.88;4991614;28;20030;-84
2021/06/16 02:24:59;;;;;;;7.88;5.25;;;;;;;12.36;66.76;90949.47;4991956;28;20048;-86
2021/06/16 02:27:32;;;;;;;10.93;4.85;;;;;;;12.21;67.04;90948.38;4975020;28;20141;-85
2021/06/16 02:30:11;;;;;;;9.05;5.20;;;;;;;12.15;67.53;90949.72;4991909;28;20030;-86
2021/06/16 02:32:47;;;;;;;9.52;5.78;;;;;;;12.10;68.75;90940.28;4976212;28;20563;-87
2021/06/16 02:35:18;;;;;;;8.93;5.38;;;;;;;12.08;68.87;90945.06;4960075;28;20453;-86
2021/06/16 02:37:49;;;;;;;9.48;5.32;;;;;;;11.98;69.36;90934.34;4943989;28;20508;-86
2021/06/16 02:40:18;;;;;;;13.20;5.85;;;;;;;11.90;70.11;90939.41;4971716;28;20129;-86
2021/06/16 02:42:48;;;;;;;11.18;5.93;;;;;;;12.06;69.73;90946.53;4969023;28;20397;-86
2021/06/16 02:45:15;;;;;;;13.63;6.03;;;;;;;12.01;69.76;90942.28;4969306;28;20027;-87
2021/06/16 02:47:45;;;;;;;9.45;5.60;;;;;;;12.05;69.71;90939.75;4957709;29;20433;-86
2021/06/16 02:50:11;;;;;;;10.25;5.80;;;;;;;12.02;69.77;90938.59;4957302;28;20038;-85
2021/06/16 02:52:40;;;;;;;14.25;6.22;;;;;;;11.94;70.54;90929.03;4942105;29;20029;-86
2021/06/16 02:55:07;;;;;;;11.27;5.47;;;;;;;11.94;70.48;90939.50;4978621;28;20034;-86
2021/06/16 02:57:35;;;;;;;9.65;5.25;;;;;;;11.92;70.29;90924.16;4980688;28;20026;-85
2021/06/16 03:00:09;;;;;;;14.95;6.00;;;;;;;11.85;70.05;90925.84;5000522;28;20455;-86
2021/06/16 03:02:36;;;;;;;10.13;5.38;;;;;;;11.72;70.35;90927.72;4995063;28;20030;-86
2021/06/16 03:05:03;;;;;;;10.02;5.85;;;;;;;11.66;71.18;90929.03;4995293;28;20142;-87
2021/06/16 03:07:32;;;;;;;10.52;5.90;;;;;;;11.70;71.54;90935.16;4994461;28;20083;-86
2021/06/16 03:09:58;;;;;;;10.60;6.00;;;;;;;11.69;71.93;90931.00;4993046;28;20045;-88
2021/06/16 03:12:25;;;;;;;12.52;6.55;;;;;;;11.76;72.10;90925.97;4992097;28;20027;-87
2021/06/16 03:14:51;;;;;;;14.32;6.15;;;;;;;11.80;72.19;90926.84;5007912;28;20030;-86
2021/06/16 03:17:21;;;;;;;12.10;5.90;;;;;;;11.85;71.81;90929.22;4983756;28;20026;-86
2021/06/16 03:19:58;;;;;;;12.55;7.28;;;;;;;11.83;71.97;90933.97;4999214;28;20018;-85
2021/06/16 03:22:34;;;;;;;11.50;6.20;;;;;;;11.92;71.56;90924.16;5006411;28;20021;-90
2021/06/16 03:25:09;;;;;;;10.63;6.13;;;;;;;11.86;72.13;90928.09;5020845;28;20011;-89
2021/06/16 03:27:39;;;;;;;11.48;6.20;;;;;;;11.94;72.16;90923.81;4994496;28;20054;-85
2021/06/16 03:30:07;;;;;;;10.95;5.93;;;;;;;11.99;72.47;90925.44;4978902;28;20037;-85
2021/06/16 03:32:38;;;;;;;11.85;6.18;;;;;;;11.90;72.83;90928.97;4978673;28;20033;-86
2021/06/16 03:35:06;;;;;;;10.23;6.03;;;;;;;11.80;73.35;90918.22;4978183;28;20064;-86
2021/06/16 03:37:33;;;;;;;10.93;6.25;;;;;;;11.84;73.73;90929.56;4980370;28;20035;-86
2021/06/16 03:40:00;;;;;;;15.23;6.22;;;;;;;11.79;73.80;90927.91;4942613;28;20440;-86
2021/06/16 03:42:27;;;;;;;9.85;6.25;;;;;;;11.80;73.20;90929.44;4971500;28;20114;-84
2021/06/16 03:44:54;;;;;;;13.65;6.03;;;;;;;11.84;73.36;90932.16;4956285;28;20027;-86
2021/06/16 03:47:21;;;;;;;9.90;6.70;;;;;;;11.79;73.35;90925.28;4923725;29;20086;-86
2021/06/16 03:49:47;;;;;;;12.63;6.20;;;;;;;11.89;73.39;90927.44;4978227;28;20393;-85
2021/06/16 03:52:15;;;;;;;10.43;6.40;;;;;;;11.90;73.18;90928.97;4994641;28;20037;-86
2021/06/16 03:54:41;;;;;;;17.83;6.90;;;;;;;11.90;73.07;90931.56;4994215;28;20453;-86
2021/06/16 03:57:08;;;;;;;11.18;6.55;;;;;;;12.06;72.66;90930.84;4994572;28;20026;-87
2021/06/16 03:59:36;;;;;;;14.43;6.55;;;;;;;12.04;72.69;90927.81;4978611;28;20527;-86
2021/06/16 04:02:02;;;;;;;11.98;6.22;;;;;;;12.12;72.65;90919.03;4994813;28;20041;-86
2021/06/16 04:04:28;;;;;;;14.48;6.53;;;;;;;12.05;72.79;90924.88;4978141;28;20030;-86
2021/06/16 04:06:54;;;;;;;18.63;7.38;;;;;;;11.99;73.36;90930.66;4978122;28;20092;-86
2021/06/16 04:09:21;;;;;;;11.77;6.20;;;;;;;11.98;73.31;90927.31;4977151;28;20523;-85
2021/06/16 04:11:50;;;;;;;11.85;6.32;;;;;;;11.96;73.85;90922.41;4977906;28;20463;-87
2021/06/16 04:14:19;;;;;;;11.20;6.72;;;;;;;12.13;73.35;90917.97;4994512;28;20022;-86
2021/06/16 04:16:53;;;;;;;10.05;6.10;;;;;;;12.07;73.25;90921.91;4977594;28;20038;-86
2021/06/16 04:19:24;;;;;;;12.98;6.43;;;;;;;12.09;73.82;90919.72;4958819;28;20082;-86
2021/06/16 04:21:51;;;;;;;11.27;6.75;;;;;;;12.05;74.22;90921.47;4958716;28;20033;-85
2021/06/16 04:24:20;;;;;;;12.30;6.78;;;;;;;12.12;73.75;90919.03;4974492;28;20018;-86
2021/06/16 04:26:46;;;;;;;12.27;6.43;;;;;;;12.16;74.03;90918.03;4974899;28;20114;-86
2021/06/16 04:29:13;;;;;;;12.80;6.40;;;;;;;12.23;73.39;90914.09;4958468;28;20072;-86
2021/06/16 04:31:48;;;;;;;11.40;6.30;;;;;;;12.44;72.60;90915.34;4974200;28;20053;-85
2021/06/16 04:34:22;;;;;;;10.48;6.00;;;;;;;12.49;72.55;90913.56;4974421;28;20026;-86
2021/06/16 04:36:49;;;;;;;13.45;5.88;;;;;;;12.55;72.24;90909.59;4974643;28;20111;-86
2021/06/16 04:39:17;;;;;;;12.68;6.55;;;;;;;12.60;72.01;90911.94;4974083;28;20074;-86
2021/06/16 04:41:45;;;;;;;12.18;6.03;;;;;;;12.79;72.15;90917.25;4958519;28;20018;-86
2021/06/16 04:44:11;;;;;;;11.93;6.60;;;;;;;12.87;71.22;90905.81;4945040;28;20037;-86
2021/06/16 04:46:39;;;;;;;11.57;6.30;;;;;;;12.98;71.12;90907.91;4977058;28;20484;-86
2021/06/16 04:49:05;;;;;;;10.40;5.80;;;;;;;13.09;70.42;90914.13;4977120;28;20510;-86
2021/06/16 04:51:32;;;;;;;10.30;6.10;;;;;;;13.24;69.82;90908.09;4977239;28;20057;-86
2021/06/16 04:53:59;;;;;;;12.05;6.00;;;;;;;13.30;69.73;90906.72;4977135;28;20026;-86
2021/06/16 04:56:25;;;;;;;10.88;5.85;;;;;;;13.50;69.23;90909.31;4977001;28;20030;-85
2021/06/16 04:58:52;;;;;;;9.95;5.82;;;;;;;13.53;69.23;90912.03;4992725;28;20032;-86
2021/06/16 05:01:18;;;;;;;11.30;5.75;;;;;;;13.62;69.33;90909.19;4992901;28;20030;-86
2021/06/16 05:03:45;;;;;;;9.48;5.70;;;;;;;13.67;68.89;90908.91;4976593;28;20491;-87
2021/06/16 05:06:18;;;;;;;14.07;6.10;;;;;;;13.81;69.13;90909.16;4992599;28;20030;-86
2021/06/16 05:08:54;;;;;;;9.05;5.63;;;;;;;13.92;69.12;90913.84;4993877;28;20027;-86
2021/06/16 05:11:33;;;;;;;9.60;5.70;;;;;;;13.97;68.45;90913.56;4976608;28;20042;-86
2021/06/16 05:14:00;;;;;;;8.60;5.60;;;;;;;14.01;67.65;90909.88;4988752;28;20526;-86
2021/06/16 05:16:27;;;;;;;10.25;5.47;;;;;;;14.14;67.72;90920.97;4957447;28;20427;-86
2021/06/16 05:18:57;;;;;;;9.80;5.15;;;;;;;14.14;67.56;90915.72;4957082;28;20026;-86
2021/06/16 05:21:24;;;;;;;9.82;5.18;;;;;;;14.14;67.95;90917.59;4972590;28;20058;-86
2021/06/16 05:23:51;;;;;;;11.82;6.10;;;;;;;14.10;68.20;90912.31;4969828;28;20039;-86
2021/06/16 05:26:18;;;;;;;9.48;5.35;;;;;;;14.12;68.52;90917.94;4971235;28;20019;-86
2021/06/16 05:28:44;;;;;;;12.82;5.70;;;;;;;14.14;68.36;90907.88;4972652;28;20027;-86
2021/06/16 05:31:09;;;;;;;9.10;5.97;;;;;;;14.24;68.24;90915.16;4972608;28;20027;-86
2021/06/16 05:33:37;;;;;;;11.05;5.68;;;;;;;14.33;67.77;90913.03;4956578;28;20388;-86
2021/06/16 05:36:03;;;;;;;8.05;5.25;;;;;;;14.49;66.91;90912.19;4972586;28;20109;-87
2021/06/16 05:38:28;;;;;;;7.97;5.82;;;;;;;14.51;66.85;90913.34;4956492;28;20031;-86
2021/06/16 05:40:54;;;;;;;8.05;5.63;;;;;;;14.58;66.61;90913.44;4955890;28;20050;-87
2021/06/16 05:43:19;;;;;;;12.50;6.07;;;;;;;14.66;66.40;90909.06;4972366;28;20035;-86
2021/06/16 05:45:45;;;;;;;13.20;5.60;;;;;;;14.82;66.90;90919.44;4940345;28;20026;-86
2021/06/16 05:48:10;;;;;;;9.82;5.22;;;;;;;14.91;65.74;90913.91;4972643;28;20034;-86
2021/06/16 05:50:35;;;;;;;9.27;5.07;;;;;;;14.94;65.49;90918.47;4956532;28;20688;-86
2021/06/16 05:53:01;;;;;;;8.05;4.72;;;;;;;15.12;64.30;90913.44;4972615;28;20093;-86
2021/06/16 05:55:26;;;;;;;9.82;5.28;;;;;;;15.12;64.59;90914.19;4956162;28;20495;-89
2021/06/16 05:57:52;;;;;;;10.27;5.30;;;;;;;15.24;64.57;90911.38;4972393;28;20480;-85
2021/06/16 06:00:17;;;;;;;9.75;5.43;;;;;;;15.28;64.60;90904.28;4956516;28;20030;-86
2021/06/16 06:02:44;;;;;;;8.35;5.00;;;;;;;15.42;63.91;90910.84;4956581;28;20019;-85
2021/06/16 06:05:10;;;;;;;7.57;5.20;;;;;;;15.53;64.58;90907.22;4973781;28;20036;-86
2021/06/16 06:07:40;;;;;;;10.70;5.60;;;;;;;15.66;63.98;90910.41;4956670;28;20038;-85
2021/06/16 06:10:10;;;;;;;11.07;5.28;;;;;;;15.81;63.37;90905.31;4973758;28;20022;-86
2021/06/16 06:12:38;;;;;;;10.48;5.38;;;;;;;15.93;63.30;90903.16;4974109;28;20022;-85
2021/06/16 06:15:16;;;;;;;11.43;4.70;;;;;;;16.06;64.83;90908.94;4958785;28;20475;-86
2021/06/16 06:17:43;;;;;;;13.38;5.63;;;;;;;16.26;68.32;90901.59;4973335;28;20496;-86
2021/06/16 06:20:12;;;;;;;10.75;5.75;;;;;;;16.39;66.67;90907.34;4957248;28;20030;-85
2021/06/16 06:22:38;;;;;;;9.63;5.53;;;;;;;16.59;65.14;90908.63;4972695;28;20031;-86
2021/06/16 06:25:05;;;;;;;10.70;6.18;;;;;;;16.76;65.37;90902.03;4972765;28;20037;-86
2021/06/16 06:27:30;;;;;;;9.15;5.15;;;;;;;16.98;63.74;90900.28;4972708;28;20033;-86
2021/06/16 06:29:57;;;;;;;8.52;4.90;;;;;;;17.17;64.31;90904.50;4972176;28;20027;-86
2021/06/16 06:32:22;;;;;;;9.35;5.00;;;;;;;17.33;60.79;90896.34;4953486;28;20374;-86
2021/06/16 06:34:49;;;;;;;7.50;4.32;;;;;;;17.46;59.24;90894.91;4970190;28;20082;-87
2021/06/16 06:37:15;;;;;;;8.98;4.80;;;;;;;17.65;59.67;90899.09;4953070;29;20027;-85
2021/06/16 06:39:42;;;;;;;8.73;4.88;;;;;;;17.75;56.83;90897.63;4922161;29;20031;-85
2021/06/16 06:42:09;;;;;;;7.47;4.38;;;;;;;17.94;52.08;90889.41;4937375;29;20023;-85
2021/06/16 06:44:35;;;;;;;6.72;4.05;;;;;;;18.06;54.79;90894.34;4965501;28;20019;-90
2021/06/16 06:47:03;;;;;;;8.02;4.40;;;;;;;18.33;55.16;90886.09;4977790;28;20145;-86
2021/06/16 06:49:30;;;;;;;6.88;4.35;;;;;;;18.47;60.23;90891.38;4964875;28;20027;-85
2021/06/16 06:51:58;;;;;;;13.07;4.32;;;;;;;18.55;53.99;90890.25;4936775;29;20658;-85
2021/06/16 06:54:25;;;;;;;12.23;4.03;;;;;;;18.76;55.67;90894.81;4953257;29;20051;-86
2021/06/16 06:56:52;;;;;;;9.98;4.13;;;;;;;19.05;53.50;90895.53;4952506;29;20430;-85
2021/06/16 06:59:17;;;;;;;9.57;3.78;;;;;;;19.26;47.42;90889.44;4952078;29;20382;-85
2021/06/16 07:01:43;;;;;;;5.03;3.22;;;;;;;19.41;47.19;90887.50;4943572;28;20477;-85
2021/06/16 07:04:11;;;;;;;8.88;4.05;;;;;;;19.58;44.81;90873.50;4954893;28;20060;-85
2021/06/16 07:06:37;;;;;;;6.95;3.50;;;;;;;19.77;46.11;90879.47;4971368;28;20027;-86
2021/06/16 07:09:03;;;;;;;7.38;3.17;;;;;;;19.94;46.77;90876.00;4972465;28;20030;-86
2021/06/16 07:11:29;;;;;;;7.22;3.65;;;;;;;20.06;45.08;90891.41;4971739;28;20027;-86
2021/06/16 07:13:54;;;;;;;6.72;3.47;;;;;;;20.37;42.40;90878.38;4972023;28;20045;-85
2021/06/16 07:16:20;;;;;;;8.63;3.30;;;;;;;20.51;42.25;90883.59;4957924;28;20027;-88
2021/06/16 07:18:47;;;;;;;6.55;3.50;;;;;;;20.55;41.65;90880.16;4971368;28;20027;-86
2021/06/16 07:21:13;;;;;;;6.88;3.40;;;;;;;20.65;43.24;90881.97;4971306;28;20018;-86
2021/06/16 07:23:39;;;;;;;7.78;3.47;;;;;;;20.82;44.06;90883.75;4955885;28;20098;-85
2021/06/16 07:26:05;;;;;;;5.63;3.33;;;;;;;20.97;42.05;90884.34;4971395;28;20027;-85
2021/06/16 07:28:32;;;;;;;8.63;3.75;;;;;;;20.91;40.41;90873.44;4971996;28;20035;-85
2021/06/16 07:30:57;;;;;;;10.68;3.50;;;;;;;21.07;39.88;90880.13;4971211;28;20023;-84
2021/06/16 07:33:23;;;;;;;9.35;3.50;;;;;;;21.04;37.73;90881.66;4970890;28;20038;-85
2021/06/16 07:35:50;;;;;;;7.65;3.35;;;;;;;21.16;40.26;90880.38;4971515;28;20499;-88
2021/06/16 07:38:21;;;;;;;8.27;3.53;;;;;;;21.28;38.00;90874.59;4952092;29;20425;-86
2021/06/16 07:40:47;;;;;;;8.25;3.20;;;;;;;21.39;39.86;90869.97;4936023;29;20024;-87
2021/06/16 07:43:15;;;;;;;6.47;3.30;;;;;;;21.61;38.19;90880.34;4967937;28;20025;-85
2021/06/16 07:45:40;;;;;;;6.25;3.70;;;;;;;21.63;39.11;90873.50;4973669;28;20027;-85
2021/06/16 07:48:06;;;;;;;6.00;3.38;;;;;;;21.76;39.04;90860.44;4959835;28;20528;-85
2021/06/16 07:50:32;;;;;;;5.05;3.20;;;;;;;21.73;38.85;90866.53;4958498;28;20035;-86
2021/06/16 07:52:58;;;;;;;5.65;3.20;;;;;;;21.82;37.53;90858.84;4978038;28;20104;-85
2021/06/16 07:55:24;;;;;;;7.30;3.40;;;;;;;21.90;38.10;90862.91;4956769;28;20073;-86
2021/06/16 07:57:51;;;;;;;6.30;3.33;;;;;;;22.05;37.70;90865.38;5038982;23;20042;-82
2021/06/16 08:00:18;;;;;;;4.88;3.13;;;;;;;22.09;36.93;90858.88;4976144;28;20159;-84
2021/06/16 08:02:44;;;;;;;8.25;3.60;;;;;;;22.05;37.42;90860.84;4946063;28;20416;-83
2021/06/16 08:05:10;;;;;;;5.57;3.47;;;;;;;22.12;36.57;90865.28;4987706;28;20042;-83
2021/06/16 08:07:36;;;;;;;6.63;3.80;;;;;;;22.33;37.44;90865.03;4963890;28;20034;-83
2021/06/16 08:10:02;;;;;;;6.18;3.33;;;;;;;22.43;36.61;90864.09;4964108;28;20034;-84
2021/06/16 08:12:28;;;;;;;6.93;2.90;;;;;;;22.52;36.39;90860.22;4969057;28;20039;-83
2021/06/16 08:14:56;;;;;;;7.35;3.40;;;;;;;22.64;37.28;90862.28;4959531;28;20038;-84
2021/06/16 08:17:23;;;;;;;10.27;3.88;;;;;;;22.66;37.32;90865.31;4969942;28;20046;-83
2021/06/16 08:19:49;;;;;;;14.82;3.78;;;;;;;22.73;35.19;90867.84;4996797;28;20551;-82
2021/06/16 08:22:15;;;;;;;7.80;3.72;;;;;;;22.80;33.77;90867.72;4996603;28;20030;-83
2021/06/16 08:24:41;;;;;;;10.90;3.55;;;;;;;22.72;33.54;90868.22;4963022;28;20036;-83
2021/06/16 08:27:09;;;;;;;6.32;3.35;;;;;;;22.75;37.38;90865.53;4979553;28;20054;-84
2021/06/16 08:29:35;;;;;;;10.00;3.80;;;;;;;22.98;34.38;90869.38;4983566;28;20038;-83
2021/06/16 08:32:01;;;;;;;5.75;3.45;;;;;;;23.02;36.39;90865.50;4960293;28;20027;-83
2021/06/16 08:34:27;;;;;;;11.70;3.78;;;;;;;22.80;33.90;90853.69;4978178;28;20022;-83
2021/06/16 08:36:54;;;;;;;6.10;3.83;;;;;;;22.92;36.97;90858.44;4986655;28;20056;-83
2021/06/16 08:39:21;;;;;;;6.53;3.80;;;;;;;23.15;35.02;90860.34;4958595;28;20030;-83
2021/06/16 08:41:47;;;;;;;9.50;3.75;;;;;;;23.32;35.37;90856.63;4979183;28;20022;-83
2021/06/16 08:44:14;;;;;;;8.40;3.67;;;;;;;23.34;34.84;90859.59;4976782;28;20492;-82
2021/06/16 08:46:48;;;;;;;15.13;3.65;;;;;;;23.40;32.70;90859.16;4977572;28;20062;-84
2021/06/16 08:49:14;;;;;;;;;;;;;;;23.41;31.04;90856.06;4978385;28;20097;-84
2021/06/16 08:51:40;;;;;;;6.30;3.70;;;;;;;23.23;32.58;90847.69;4976785;28;20426;-83
2021/06/16 08:54:05;;;;;;;7.95;4.45;;;;;;;23.29;34.50;90851.38;4965816;28;20173;-82
2021/06/16 08:56:32;;;;;;;10.60;3.80;;;;;;;23.49;37.39;90851.38;4957317;28;20039;-84
2021/06/16 08:58:58;;;;;;;7.18;3.85;;;;;;;23.60;34.61;90854.56;4957268;28;20468;-83
2021/06/16 09:01:26;;;;;;;9.27;4.00;;;;;;;23.76;35.45;90849.34;4957048;28;20035;-84
2021/06/16 09:03:51;;;;;;;8.65;3.72;;;;;;;23.66;34.58;90847.63;4954347;28;20396;-84
2021/06/16 09:06:17;;;;;;;10.75;4.07;;;;;;;23.57;32.90;90850.09;4944800;28;20022;-81
2021/06/16 09:09:09;;;;;;;9.38;4.13;;;;;;;23.79;36.33;90855.75;4961856;28;20031;-84
2021/06/16 09:11:42;;;;;;;5.85;3.80;;;;;;;23.87;33.06;90848.38;4973791;28;20043;-85
2021/06/16 09:14:17;;;;;;;6.60;3.60;;;;;;;23.98;34.56;90856.88;4994003;28;20023;-83
2021/06/16 09:16:42;;;;;;;8.32;4.25;;;;;;;24.13;36.48;90852.75;4993865;28;20018;-85
2021/06/16 09:19:24;;;;;;;7.38;3.47;;;;;;;24.15;34.55;90850.44;4976432;28;20415;-82
2021/06/16 09:22:02;;;;;;;8.65;3.92;;;;;;;24.36;35.36;90854.56;4961469;28;20034;-83
2021/06/16 09:24:44;;;;;;;9.18;3.85;;;;;;;24.20;33.45;90852.59;4977576;28;20547;-84
2021/06/16 09:27:14;;;;;;;7.45;3.50;;;;;;;24.05;30.60;90851.41;4976690;28;20070;-83
2021/06/16 09:29:39;;;;;;;7.75;3.30;;;;;;;24.02;30.39;90847.66;4977667;28;20492;-84
2021/06/16 09:32:05;;;;;;;9.07;3.72;;;;;;;24.24;33.97;90852.53;4975518;28;20053;-83
2021/06/16 09:34:31;;;;;;;7.40;3.70;;;;;;;24.23;31.67;90857.09;4957629;28;20027;-83
2021/06/16 09:36:58;;;;;;;6.55;3.63;;;;;;;24.27;33.11;90851.69;4960529;28;20022;-83
2021/06/16 09:39:26;;;;;;;6.15;3.90;;;;;;;24.21;33.29;90859.44;4976651;28;20037;-84
2021/06/16 09:42:00;;;;;;;7.07;4.28;;;;;;;24.25;33.14;90854.03;4971818;28;20038;-84
2021/06/16 09:44:38;;;;;;;;;;;;;;;24.26;31.63;90856.28;4959069;28;20030;-84
2021/06/16 09:47:22;;;;;;;7.38;3.80;;;;;;;24.02;29.60;90850.31;4975858;28;19941;-84
2021/06/16 09:49:55;;;;;;;6.45;3.65;;;;;;;24.20;31.30;90851.84;4965034;28;20027;-84
2021/06/16 09:52:34;;;;;;;8.95;3.80;;;;;;;24.39;35.28;90864.38;4974821;28;20117;-84
2021/06/16 09:55:13;;;;;;;6.38;4.32;;;;;;;24.38;32.84;90849.53;4974317;28;20034;-84
2021/06/16 09:58:03;;;;;;;9.60;4.57;;;;;;;24.65;35.12;90854.69;4966038;28;20763;-82
2021/06/16 10:00:31;;;;;;;9.07;4.38;;;;;;;24.57;33.90;90853.34;4976150;28;20037;-84
2021/06/16 10:03:16;;;;;;;7.45;4.43;;;;;;;24.84;36.88;90850.44;4960426;28;20033;-83
2021/06/16 10:06:02;;;;;;;8.77;4.60;;;;;;;24.77;31.57;90851.34;4976413;28;20097;-84
2021/06/16 10:08:45;;;;;;;12.85;4.13;;;;;;;24.83;36.46;90853.50;4975172;28;20046;-83
2021/06/16 10:11:17;;;;;;;7.63;4.07;;;;;;;25.01;29.87;90843.16;4946102;28;20022;-83
2021/06/16 10:13:57;;;;;;;7.63;4.00;;;;;;;24.99;34.04;90850.84;4959501;28;20444;-80
2021/06/16 10:16:30;;;;;;;8.45;4.10;;;;;;;25.06;31.49;90841.91;4958928;28;20022;-84
2021/06/16 10:19:05;;;;;;;6.50;4.35;;;;;;;24.94;32.93;90844.06;4959376;28;20019;-83
2021/06/16 10:21:45;;;;;;;8.48;4.20;;;;;;;25.23;33.32;90844.16;4958378;28;20031;-83
2021/06/16 10:24:28;;;;;;;7.35;4.05;;;;;;;25.25;32.20;90841.81;4959259;28;20030;-83
2021/06/16 10:27:11;;;;;;;6.57;4.30;;;;;;;25.17;30.70;90848.50;4958049;28;20027;-84
2021/06/16 10:29:53;;;;;;;9.88;4.50;;;;;;;25.20;32.04;90849.59;4959440;28;20030;-80
2021/06/16 10:32:32;;;;;;;8.65;4.47;;;;;;;25.23;31.95;90830.81;4943502;28;20038;-84
2021/06/16 10:35:17;;;;;;;8.40;4.20;;;;;;;25.55;32.67;90837.25;4928290;28;20057;-83
2021/06/16 10:37:50;;;;;;;8.55;4.10;;;;;;;25.75;33.30;90839.72;4990910;28;20022;-83
2021/06/16 10:40:28;;;;;;;7.07;4.50;;;;;;;25.65;32.28;90838.09;4961963;28;20038;-83
2021/06/16 10:43:13;;;;;;;6.15;4.22;;;;;;;25.63;29.92;90827.84;4995072;28;20022;-84
2021/06/16 10:46:16;;;;;;;6.50;4.03;;;;;;;25.62;29.49;90828.25;4995152;28;20030;-83
2021/06/16 10:49:01;;;;;;;6.65;4.05;;;;;;;25.62;34.51;90841.59;4969916;28;20046;-83
2021/06/16 10:51:40;;;;;;;12.07;4.70;;;;;;;25.76;32.53;90833.25;4961103;28;20444;-82
2021/06/16 10:54:28;;;;;;;10.65;4.75;;;;;;;25.93;34.33;90839.25;4961518;28;20085;-81
2021/06/16 10:57:15;;;;;;;9.73;4.53;;;;;;;26.13;30.49;90829.13;4962710;28;20018;-82
2021/06/16 10:59:58;;;;;;;9.80;4.95;;;;;;;25.83;31.28;90829.63;4977402;28;20050;-81
2021/06/16 11:02:48;;;;;;;16.33;5.25;;;;;;;25.92;31.45;90827.09;4977866;28;20054;-82
2021/06/16 11:05:43;;;;;;;11.90;5.20;;;;;;;25.99;34.45;90824.97;4995238;28;20494;-83
2021/06/16 11:08:47;;;;;;;6.90;4.43;;;;;;;25.94;33.88;90819.41;4995223;28;20440;-83
2021/06/16 11:11:53;;;;;;;10.93;4.60;;;;;;;26.00;33.98;90817.69;4963855;28;20050;-83
2021/06/16 11:14:46;;;;;;;12.40;4.30;;;;;;;26.14;32.26;90811.19;4980555;28;20034;-83
2021/06/16 11:17:40;;;;;;;7.97;4.70;;;;;;;26.38;34.28;90808.94;4993828;28;20025;-83
2021/06/16 11:20:16;;;;;;;8.13;4.88;;;;;;;26.38;32.82;90811.63;4995743;28;20401;-83
2021/06/16 11:22:58;;;;;;;9.45;4.50;;;;;;;26.54;33.16;90811.53;4965203;28;20030;-82
2021/06/16 11:25:37;;;;;;;7.07;4.22;;;;;;;26.68;32.80;90811.09;4980225;28;20546;-83
2021/06/16 11:28:20;;;;;;;9.50;4.47;;;;;;;26.80;32.40;90814.16;4998031;28;20373;-82
2021/06/16 11:31:07;;;;;;;7.70;4.40;;;;;;;26.81;30.67;90818.31;4997413;28;20023;-84
2021/06/16 11:33:52;;;;;;;7.82;4.40;;;;;;;26.90;29.77;90815.75;4997185;28;20105;-83
2021/06/16 11:36:38;;;;;;;10.43;4.25;;;;;;;26.99;32.29;90809.72;4965397;28;20101;-83
2021/06/16 11:39:25;;;;;;;10.40;6.30;;;;;;;27.01;31.67;90805.44;4981491;28;20499;-84
2021/06/16 11:42:08;;;;;;;8.00;4.35;;;;;;;27.05;30.88;90805.31;4966650;28;20038;-84
2021/06/16 11:44:54;;;;;;;8.15;4.85;;;;;;;27.27;31.42;90802.72;4981568;28;20038;-82
2021/06/16 11:47:31;;;;;;;8.65;4.30;;;;;;;27.48;30.96;90798.56;4964916;28;20034;-83
2021/06/16 11:50:06;;;;;;;6.68;4.43;;;;;;;27.41;32.80;90802.97;4965243;28;20026;-83